sensor_id;sensor_type;location;lat;lon;timestamp;P1;durP1;ratioP1;P2;durP2;ratioP2
74995;SDS011;63545;51.690;5.202;2023-07-28T00:01:22;30.30;;;17.43;;
74995;SDS011;63545;51.690;5.202;2023-07-28T00:03:47;31.23;;;17.05;;
74995;SDS011;63545;51.690;5.202;2023-07-28T00:06:16;33.23;;;17.10;;
74995;SDS011;63545;51.690;5.202;2023-07-28T00:08:41;36.90;;;17.90;;
74995;SDS011;63545;51.690;5.202;2023-07-28T00:11:10;30.73;;;17.73;;
74995;SDS011;63545;51.690;5.202;2023-07-28T00:13:39;32.72;;;17.67;;
74995;SDS011;63545;51.690;5.202;2023-07-28T00:16:05;29.87;;;17.37;;
74995;SDS011;63545;51.690;5.202;2023-07-28T00:18:31;29.90;;;16.90;;
74995;SDS011;63545;51.690;5.202;2023-07-28T00:20:56;31.07;;;17.37;;
74995;SDS011;63545;51.690;5.202;2023-07-28T00:23:22;28.15;;;15.68;;
74995;SDS011;63545;51.690;5.202;2023-07-28T00:25:47;29.83;;;16.33;;
74995;SDS011;63545;51.690;5.202;2023-07-28T00:28:12;30.50;;;16.83;;
74995;SDS011;63545;51.690;5.202;2023-07-28T00:30:38;31.08;;;17.48;;
74995;SDS011;63545;51.690;5.202;2023-07-28T00:33:04;33.63;;;17.43;;
74995;SDS011;63545;51.690;5.202;2023-07-28T00:35:29;32.93;;;17.33;;
74995;SDS011;63545;51.690;5.202;2023-07-28T00:37:54;36.40;;;18.00;;
74995;SDS011;63545;51.690;5.202;2023-07-28T00:40:21;35.57;;;17.83;;
74995;SDS011;63545;51.690;5.202;2023-07-28T00:42:46;34.25;;;18.17;;
74995;SDS011;63545;51.690;5.202;2023-07-28T00:45:12;38.93;;;17.33;;
74995;SDS011;63545;51.690;5.202;2023-07-28T00:47:37;35.13;;;17.45;;
74995;SDS011;63545;51.690;5.202;2023-07-28T00:50:03;36.90;;;17.50;;
74995;SDS011;63545;51.690;5.202;2023-07-28T00:52:29;36.22;;;17.85;;
74995;SDS011;63545;51.690;5.202;2023-07-28T00:54:54;34.30;;;17.57;;
74995;SDS011;63545;51.690;5.202;2023-07-28T00:57:19;35.97;;;16.30;;
74995;SDS011;63545;51.690;5.202;2023-07-28T00:59:45;30.37;;;16.03;;
74995;SDS011;63545;51.690;5.202;2023-07-28T01:02:11;32.60;;;15.95;;
74995;SDS011;63545;51.690;5.202;2023-07-28T01:04:37;28.73;;;15.05;;
74995;SDS011;63545;51.690;5.202;2023-07-28T01:10:36;32.28;;;14.95;;
74995;SDS011;63545;51.690;5.202;2023-07-28T01:12:55;27.23;;;13.97;;
74995;SDS011;63545;51.690;5.202;2023-07-28T01:15:21;31.07;;;14.40;;
74995;SDS011;63545;51.690;5.202;2023-07-28T01:17:46;30.60;;;14.63;;
74995;SDS011;63545;51.690;5.202;2023-07-28T01:20:11;31.23;;;13.80;;
74995;SDS011;63545;51.690;5.202;2023-07-28T01:22:47;32.63;;;14.23;;
74995;SDS011;63545;51.690;5.202;2023-07-28T01:27:52;31.88;;;14.30;;
74995;SDS011;63545;51.690;5.202;2023-07-28T01:30:18;31.27;;;12.80;;
74995;SDS011;63545;51.690;5.202;2023-07-28T01:32:46;35.35;;;13.98;;
74995;SDS011;63545;51.690;5.202;2023-07-28T01:35:12;33.10;;;13.70;;
74995;SDS011;63545;51.690;5.202;2023-07-28T01:37:37;30.03;;;13.30;;
74995;SDS011;63545;51.690;5.202;2023-07-28T01:40:03;33.43;;;13.17;;
74995;SDS011;63545;51.690;5.202;2023-07-28T01:42:28;31.88;;;12.73;;
74995;SDS011;63545;51.690;5.202;2023-07-28T01:44:54;35.40;;;13.50;;
74995;SDS011;63545;51.690;5.202;2023-07-28T01:47:19;33.50;;;13.20;;
74995;SDS011;63545;51.690;5.202;2023-07-28T01:49:44;33.97;;;12.50;;
74995;SDS011;63545;51.690;5.202;2023-07-28T01:52:10;34.50;;;12.70;;
74995;SDS011;63545;51.690;5.202;2023-07-28T01:54:35;32.13;;;12.20;;
74995;SDS011;63545;51.690;5.202;2023-07-28T01:57:00;35.83;;;12.30;;
74995;SDS011;63545;51.690;5.202;2023-07-28T01:59:26;32.03;;;12.30;;
74995;SDS011;63545;51.690;5.202;2023-07-28T02:01:51;33.97;;;11.73;;
74995;SDS011;63545;51.690;5.202;2023-07-28T02:04:16;31.53;;;12.00;;
74995;SDS011;63545;51.690;5.202;2023-07-28T02:06:42;33.37;;;12.40;;
74995;SDS011;63545;51.690;5.202;2023-07-28T02:09:07;34.33;;;12.00;;
74995;SDS011;63545;51.690;5.202;2023-07-28T02:11:33;45.78;;;13.60;;
74995;SDS011;63545;51.690;5.202;2023-07-28T02:13:58;35.90;;;12.70;;
74995;SDS011;63545;51.690;5.202;2023-07-28T02:16:24;46.73;;;12.40;;
74995;SDS011;63545;51.690;5.202;2023-07-28T02:18:49;40.00;;;12.73;;
74995;SDS011;63545;51.690;5.202;2023-07-28T02:21:14;38.33;;;13.60;;
74995;SDS011;63545;51.690;5.202;2023-07-28T02:23:40;41.27;;;13.03;;
74995;SDS011;63545;51.690;5.202;2023-07-28T02:26:06;43.42;;;13.10;;
74995;SDS011;63545;51.690;5.202;2023-07-28T02:28:31;48.57;;;13.80;;
74995;SDS011;63545;51.690;5.202;2023-07-28T02:30:57;41.80;;;13.63;;
74995;SDS011;63545;51.690;5.202;2023-07-28T02:33:22;39.17;;;13.33;;
74995;SDS011;63545;51.690;5.202;2023-07-28T02:35:47;39.83;;;13.43;;
74995;SDS011;63545;51.690;5.202;2023-07-28T02:38:12;44.15;;;13.55;;
74995;SDS011;63545;51.690;5.202;2023-07-28T02:40:38;44.83;;;14.20;;
74995;SDS011;63545;51.690;5.202;2023-07-28T02:43:03;51.83;;;14.83;;
74995;SDS011;63545;51.690;5.202;2023-07-28T02:45:29;51.70;;;15.00;;
74995;SDS011;63545;51.690;5.202;2023-07-28T02:47:54;51.10;;;14.73;;
74995;SDS011;63545;51.690;5.202;2023-07-28T02:50:19;56.47;;;15.93;;
74995;SDS011;63545;51.690;5.202;2023-07-28T02:52:45;52.78;;;15.52;;
74995;SDS011;63545;51.690;5.202;2023-07-28T02:55:10;49.30;;;15.10;;
74995;SDS011;63545;51.690;5.202;2023-07-28T02:57:35;56.07;;;16.00;;
74995;SDS011;63545;51.690;5.202;2023-07-28T03:00:01;60.30;;;15.50;;
74995;SDS011;63545;51.690;5.202;2023-07-28T03:02:26;66.33;;;16.80;;
74995;SDS011;63545;51.690;5.202;2023-07-28T03:04:51;69.73;;;19.03;;
74995;SDS011;63545;51.690;5.202;2023-07-28T03:07:17;67.17;;;18.30;;
74995;SDS011;63545;51.690;5.202;2023-07-28T03:09:42;69.05;;;19.27;;
74995;SDS011;63545;51.690;5.202;2023-07-28T03:12:08;74.97;;;20.73;;
74995;SDS011;63545;51.690;5.202;2023-07-28T03:14:33;70.40;;;21.63;;
74995;SDS011;63545;51.690;5.202;2023-07-28T03:16:59;77.55;;;23.10;;
74995;SDS011;63545;51.690;5.202;2023-07-28T03:19:24;75.70;;;22.10;;
74995;SDS011;63545;51.690;5.202;2023-07-28T03:21:49;78.00;;;22.00;;
74995;SDS011;63545;51.690;5.202;2023-07-28T03:24:15;84.80;;;23.37;;
74995;SDS011;63545;51.690;5.202;2023-07-28T03:26:40;84.97;;;23.20;;
74995;SDS011;63545;51.690;5.202;2023-07-28T03:29:05;84.60;;;23.47;;
74995;SDS011;63545;51.690;5.202;2023-07-28T03:31:31;81.13;;;23.03;;
74995;SDS011;63545;51.690;5.202;2023-07-28T03:33:56;78.03;;;23.20;;
74995;SDS011;63545;51.690;5.202;2023-07-28T03:36:22;87.93;;;23.47;;
74995;SDS011;63545;51.690;5.202;2023-07-28T03:38:47;71.03;;;23.17;;
74995;SDS011;63545;51.690;5.202;2023-07-28T03:41:13;78.20;;;23.63;;
74995;SDS011;63545;51.690;5.202;2023-07-28T03:43:38;86.55;;;25.15;;
74995;SDS011;63545;51.690;5.202;2023-07-28T03:46:04;79.40;;;23.65;;
74995;SDS011;63545;51.690;5.202;2023-07-28T03:48:29;74.67;;;23.17;;
74995;SDS011;63545;51.690;5.202;2023-07-28T03:50:55;74.53;;;23.80;;
74995;SDS011;63545;51.690;5.202;2023-07-28T03:53:20;80.33;;;24.43;;
74995;SDS011;63545;51.690;5.202;2023-07-28T03:55:46;76.13;;;24.67;;
74995;SDS011;63545;51.690;5.202;2023-07-28T03:58:11;78.73;;;24.77;;
74995;SDS011;63545;51.690;5.202;2023-07-28T04:00:36;80.10;;;25.57;;
74995;SDS011;63545;51.690;5.202;2023-07-28T04:03:02;87.77;;;26.13;;
74995;SDS011;63545;51.690;5.202;2023-07-28T04:05:27;84.27;;;24.87;;
74995;SDS011;63545;51.690;5.202;2023-07-28T04:07:53;81.27;;;24.10;;
74995;SDS011;63545;51.690;5.202;2023-07-28T04:10:18;82.05;;;25.10;;
74995;SDS011;63545;51.690;5.202;2023-07-28T04:12:43;80.90;;;24.83;;
74995;SDS011;63545;51.690;5.202;2023-07-28T04:15:09;86.93;;;25.63;;
74995;SDS011;63545;51.690;5.202;2023-07-28T04:17:34;83.43;;;26.48;;
74995;SDS011;63545;51.690;5.202;2023-07-28T04:20:00;85.03;;;25.77;;
74995;SDS011;63545;51.690;5.202;2023-07-28T04:22:25;86.60;;;25.10;;
74995;SDS011;63545;51.690;5.202;2023-07-28T04:24:51;91.10;;;25.97;;
74995;SDS011;63545;51.690;5.202;2023-07-28T04:27:18;99.00;;;26.92;;
74995;SDS011;63545;51.690;5.202;2023-07-28T04:29:43;94.13;;;26.40;;
74995;SDS011;63545;51.690;5.202;2023-07-28T04:32:08;99.97;;;27.45;;
74995;SDS011;63545;51.690;5.202;2023-07-28T04:34:34;101.10;;;27.07;;
74995;SDS011;63545;51.690;5.202;2023-07-28T04:36:59;97.13;;;28.10;;
74995;SDS011;63545;51.690;5.202;2023-07-28T04:39:24;99.47;;;28.33;;
74995;SDS011;63545;51.690;5.202;2023-07-28T04:41:50;105.17;;;28.33;;
74995;SDS011;63545;51.690;5.202;2023-07-28T04:44:15;105.15;;;27.95;;
74995;SDS011;63545;51.690;5.202;2023-07-28T04:46:41;101.40;;;29.57;;
74995;SDS011;63545;51.690;5.202;2023-07-28T04:49:06;103.83;;;28.73;;
74995;SDS011;63545;51.690;5.202;2023-07-28T04:51:31;98.80;;;28.00;;
74995;SDS011;63545;51.690;5.202;2023-07-28T04:53:57;99.33;;;28.20;;
74995;SDS011;63545;51.690;5.202;2023-07-28T04:56:22;100.30;;;28.37;;
74995;SDS011;63545;51.690;5.202;2023-07-28T04:58:47;98.65;;;27.75;;
74995;SDS011;63545;51.690;5.202;2023-07-28T05:01:13;91.60;;;25.37;;
74995;SDS011;63545;51.690;5.202;2023-07-28T05:03:38;105.50;;;28.00;;
74995;SDS011;63545;51.690;5.202;2023-07-28T05:06:03;96.73;;;28.07;;
74995;SDS011;63545;51.690;5.202;2023-07-28T05:08:30;99.03;;;27.20;;
74995;SDS011;63545;51.690;5.202;2023-07-28T05:10:55;89.07;;;27.90;;
74995;SDS011;63545;51.690;5.202;2023-07-28T05:13:21;99.33;;;26.90;;
74995;SDS011;63545;51.690;5.202;2023-07-28T05:15:46;93.47;;;26.27;;
74995;SDS011;63545;51.690;5.202;2023-07-28T05:18:11;103.05;;;26.95;;
74995;SDS011;63545;51.690;5.202;2023-07-28T05:20:37;96.70;;;27.53;;
74995;SDS011;63545;51.690;5.202;2023-07-28T05:23:02;102.03;;;27.70;;
74995;SDS011;63545;51.690;5.202;2023-07-28T05:25:27;93.60;;;26.97;;
74995;SDS011;63545;51.690;5.202;2023-07-28T05:27:53;88.37;;;27.17;;
74995;SDS011;63545;51.690;5.202;2023-07-28T05:30:18;88.80;;;26.83;;
74995;SDS011;63545;51.690;5.202;2023-07-28T05:32:43;81.50;;;26.20;;
74995;SDS011;63545;51.690;5.202;2023-07-28T05:35:11;88.23;;;26.53;;
74995;SDS011;63545;51.690;5.202;2023-07-28T05:37:36;83.25;;;25.40;;
74995;SDS011;63545;51.690;5.202;2023-07-28T05:40:02;91.00;;;25.50;;
74995;SDS011;63545;51.690;5.202;2023-07-28T05:42:28;79.68;;;25.13;;
74995;SDS011;63545;51.690;5.202;2023-07-28T05:44:53;86.20;;;26.20;;
74995;SDS011;63545;51.690;5.202;2023-07-28T05:47:20;88.22;;;26.73;;
74995;SDS011;63545;51.690;5.202;2023-07-28T05:49:46;86.27;;;27.13;;
74995;SDS011;63545;51.690;5.202;2023-07-28T05:52:11;81.07;;;27.17;;
74995;SDS011;63545;51.690;5.202;2023-07-28T05:54:36;87.27;;;27.60;;
74995;SDS011;63545;51.690;5.202;2023-07-28T05:57:02;86.20;;;28.27;;
74995;SDS011;63545;51.690;5.202;2023-07-28T05:59:30;90.00;;;28.27;;
74995;SDS011;63545;51.690;5.202;2023-07-28T06:01:55;89.80;;;28.53;;
74995;SDS011;63545;51.690;5.202;2023-07-28T06:04:20;94.17;;;29.23;;
74995;SDS011;63545;51.690;5.202;2023-07-28T06:06:46;99.77;;;29.87;;
74995;SDS011;63545;51.690;5.202;2023-07-28T06:09:12;84.40;;;27.23;;
74995;SDS011;63545;51.690;5.202;2023-07-28T06:11:37;84.27;;;25.70;;
74995;SDS011;63545;51.690;5.202;2023-07-28T06:14:03;87.93;;;26.77;;
74995;SDS011;63545;51.690;5.202;2023-07-28T06:16:28;87.90;;;27.30;;
74995;SDS011;63545;51.690;5.202;2023-07-28T06:18:53;90.13;;;27.70;;
74995;SDS011;63545;51.690;5.202;2023-07-28T06:21:19;83.97;;;26.97;;
74995;SDS011;63545;51.690;5.202;2023-07-28T06:23:44;77.20;;;26.30;;
74995;SDS011;63545;51.690;5.202;2023-07-28T06:26:10;85.30;;;26.00;;
74995;SDS011;63545;51.690;5.202;2023-07-28T06:28:35;83.57;;;26.80;;
74995;SDS011;63545;51.690;5.202;2023-07-28T06:31:02;82.95;;;27.00;;
74995;SDS011;63545;51.690;5.202;2023-07-28T06:33:28;80.60;;;24.67;;
74995;SDS011;63545;51.690;5.202;2023-07-28T06:35:53;76.55;;;25.45;;
74995;SDS011;63545;51.690;5.202;2023-07-28T06:38:19;74.27;;;24.13;;
74995;SDS011;63545;51.690;5.202;2023-07-28T06:40:44;75.17;;;24.97;;
74995;SDS011;63545;51.690;5.202;2023-07-28T06:43:09;76.60;;;25.63;;
74995;SDS011;63545;51.690;5.202;2023-07-28T06:45:35;65.67;;;24.20;;
74995;SDS011;63545;51.690;5.202;2023-07-28T06:48:01;69.57;;;24.80;;
74995;SDS011;63545;51.690;5.202;2023-07-28T06:50:26;68.38;;;24.90;;
74995;SDS011;63545;51.690;5.202;2023-07-28T06:52:51;65.93;;;24.13;;
74995;SDS011;63545;51.690;5.202;2023-07-28T06:55:17;59.97;;;24.03;;
74995;SDS011;63545;51.690;5.202;2023-07-28T06:57:43;64.28;;;23.50;;
74995;SDS011;63545;51.690;5.202;2023-07-28T07:00:09;63.33;;;24.13;;
74995;SDS011;63545;51.690;5.202;2023-07-28T07:02:35;60.50;;;23.88;;
74995;SDS011;63545;51.690;5.202;2023-07-28T07:05:00;56.65;;;23.83;;
74995;SDS011;63545;51.690;5.202;2023-07-28T07:07:26;63.17;;;24.37;;
74995;SDS011;63545;51.690;5.202;2023-07-28T07:09:51;66.97;;;24.73;;
74995;SDS011;63545;51.690;5.202;2023-07-28T07:12:17;68.40;;;25.37;;
74995;SDS011;63545;51.690;5.202;2023-07-28T07:14:42;66.13;;;25.15;;
74995;SDS011;63545;51.690;5.202;2023-07-28T07:17:08;62.80;;;24.53;;
74995;SDS011;63545;51.690;5.202;2023-07-28T07:19:33;70.33;;;25.93;;
74995;SDS011;63545;51.690;5.202;2023-07-28T07:21:58;62.43;;;25.37;;
74995;SDS011;63545;51.690;5.202;2023-07-28T07:24:24;59.43;;;24.03;;
74995;SDS011;63545;51.690;5.202;2023-07-28T07:26:49;69.53;;;26.73;;
74995;SDS011;63545;51.690;5.202;2023-07-28T07:29:15;61.27;;;24.93;;
74995;SDS011;63545;51.690;5.202;2023-07-28T07:31:41;65.20;;;25.75;;
74995;SDS011;63545;51.690;5.202;2023-07-28T07:34:06;64.70;;;25.17;;
74995;SDS011;63545;51.690;5.202;2023-07-28T07:36:31;68.30;;;25.30;;
74995;SDS011;63545;51.690;5.202;2023-07-28T07:38:58;60.17;;;24.75;;
74995;SDS011;63545;51.690;5.202;2023-07-28T07:41:23;57.83;;;24.37;;
74995;SDS011;63545;51.690;5.202;2023-07-28T07:43:49;54.13;;;23.00;;
74995;SDS011;63545;51.690;5.202;2023-07-28T07:46:18;52.77;;;22.83;;
74995;SDS011;63545;51.690;5.202;2023-07-28T07:48:44;50.80;;;22.65;;
74995;SDS011;63545;51.690;5.202;2023-07-28T07:51:10;54.10;;;23.27;;
74995;SDS011;63545;51.690;5.202;2023-07-28T07:53:36;49.03;;;23.03;;
74995;SDS011;63545;51.690;5.202;2023-07-28T07:56:04;54.08;;;22.55;;
74995;SDS011;63545;51.690;5.202;2023-07-28T07:58:30;50.13;;;22.90;;
74995;SDS011;63545;51.690;5.202;2023-07-28T08:00:56;52.97;;;23.05;;
74995;SDS011;63545;51.690;5.202;2023-07-28T08:03:21;52.33;;;24.00;;
74995;SDS011;63545;51.690;5.202;2023-07-28T08:05:46;54.33;;;23.67;;
74995;SDS011;63545;51.690;5.202;2023-07-28T08:08:12;49.93;;;23.03;;
74995;SDS011;63545;51.690;5.202;2023-07-28T08:10:40;47.42;;;22.92;;
74995;SDS011;63545;51.690;5.202;2023-07-28T08:13:05;48.83;;;23.30;;
74995;SDS011;63545;51.690;5.202;2023-07-28T08:15:30;41.37;;;19.73;;
74995;SDS011;63545;51.690;5.202;2023-07-28T08:17:56;43.87;;;21.27;;
74995;SDS011;63545;51.690;5.202;2023-07-28T08:20:21;42.57;;;20.57;;
74995;SDS011;63545;51.690;5.202;2023-07-28T08:22:46;42.13;;;21.42;;
74995;SDS011;63545;51.690;5.202;2023-07-28T08:25:12;41.50;;;21.00;;
74995;SDS011;63545;51.690;5.202;2023-07-28T08:27:37;45.73;;;20.87;;
74995;SDS011;63545;51.690;5.202;2023-07-28T08:30:03;36.57;;;19.53;;
74995;SDS011;63545;51.690;5.202;2023-07-28T08:32:29;39.88;;;19.25;;
74995;SDS011;63545;51.690;5.202;2023-07-28T08:34:54;35.70;;;18.77;;
74995;SDS011;63545;51.690;5.202;2023-07-28T08:37:19;38.23;;;20.23;;
74995;SDS011;63545;51.690;5.202;2023-07-28T08:39:45;39.23;;;20.10;;
74995;SDS011;63545;51.690;5.202;2023-07-28T08:42:10;37.28;;;18.80;;
74995;SDS011;63545;51.690;5.202;2023-07-28T08:44:35;43.40;;;19.07;;
74995;SDS011;63545;51.690;5.202;2023-07-28T08:47:04;37.73;;;19.43;;
74995;SDS011;63545;51.690;5.202;2023-07-28T08:49:33;33.63;;;17.67;;
74995;SDS011;63545;51.690;5.202;2023-07-28T08:52:00;35.80;;;19.02;;
74995;SDS011;63545;51.690;5.202;2023-07-28T08:54:26;36.30;;;18.00;;
74995;SDS011;63545;51.690;5.202;2023-07-28T08:56:52;31.75;;;17.05;;
74995;SDS011;63545;51.690;5.202;2023-07-28T08:59:21;31.63;;;16.67;;
74995;SDS011;63545;51.690;5.202;2023-07-28T09:01:49;29.10;;;16.65;;
74995;SDS011;63545;51.690;5.202;2023-07-28T09:04:15;26.08;;;15.85;;
74995;SDS011;63545;51.690;5.202;2023-07-28T09:06:44;28.60;;;15.57;;
74995;SDS011;63545;51.690;5.202;2023-07-28T09:09:09;26.92;;;15.13;;
74995;SDS011;63545;51.690;5.202;2023-07-28T09:11:43;25.05;;;14.52;;
74995;SDS011;63545;51.690;5.202;2023-07-28T09:14:14;24.33;;;14.17;;
74995;SDS011;63545;51.690;5.202;2023-07-28T09:16:41;20.98;;;13.32;;
74995;SDS011;63545;51.690;5.202;2023-07-28T09:19:07;19.90;;;12.73;;
74995;SDS011;63545;51.690;5.202;2023-07-28T09:21:33;19.55;;;11.88;;
74995;SDS011;63545;51.690;5.202;2023-07-28T09:24:05;17.73;;;11.57;;
74995;SDS011;63545;51.690;5.202;2023-07-28T09:29:19;19.23;;;12.25;;
74995;SDS011;63545;51.690;5.202;2023-07-28T09:31:45;22.23;;;12.88;;
74995;SDS011;63545;51.690;5.202;2023-07-28T09:34:12;22.63;;;13.13;;
74995;SDS011;63545;51.690;5.202;2023-07-28T09:36:38;21.58;;;12.40;;
74995;SDS011;63545;51.690;5.202;2023-07-28T09:39:05;19.48;;;11.43;;
74995;SDS011;63545;51.690;5.202;2023-07-28T09:41:36;20.35;;;12.27;;
74995;SDS011;63545;51.690;5.202;2023-07-28T09:44:04;18.52;;;11.95;;
74995;SDS011;63545;51.690;5.202;2023-07-28T09:46:30;22.00;;;12.37;;
74995;SDS011;63545;51.690;5.202;2023-07-28T09:48:59;22.65;;;11.55;;
74995;SDS011;63545;51.690;5.202;2023-07-28T09:51:30;19.83;;;10.45;;
74995;SDS011;63545;51.690;5.202;2023-07-28T09:54:40;17.00;;;11.25;;
74995;SDS011;63545;51.690;5.202;2023-07-28T09:56:52;15.93;;;10.87;;
74995;SDS011;63545;51.690;5.202;2023-07-28T09:59:21;19.17;;;10.93;;
74995;SDS011;63545;51.690;5.202;2023-07-28T10:01:49;16.42;;;10.73;;
74995;SDS011;63545;51.690;5.202;2023-07-28T10:04:15;17.37;;;10.80;;
74995;SDS011;63545;51.690;5.202;2023-07-28T10:06:40;17.75;;;11.43;;
74995;SDS011;63545;51.690;5.202;2023-07-28T10:09:05;15.73;;;10.17;;
74995;SDS011;63545;51.690;5.202;2023-07-28T10:11:31;15.13;;;10.83;;
74995;SDS011;63545;51.690;5.202;2023-07-28T10:13:57;17.77;;;10.93;;
74995;SDS011;63545;51.690;5.202;2023-07-28T10:16:38;15.93;;;10.97;;
74995;SDS011;63545;51.690;5.202;2023-07-28T10:19:04;16.02;;;10.75;;
74995;SDS011;63545;51.690;5.202;2023-07-28T10:21:29;18.73;;;11.70;;
74995;SDS011;63545;51.690;5.202;2023-07-28T10:23:57;15.88;;;10.85;;
74995;SDS011;63545;51.690;5.202;2023-07-28T10:26:35;16.02;;;11.15;;
74995;SDS011;63545;51.690;5.202;2023-07-28T10:29:13;16.83;;;11.00;;
74995;SDS011;63545;51.690;5.202;2023-07-28T10:32:01;18.60;;;12.23;;
74995;SDS011;63545;51.690;5.202;2023-07-28T10:34:25;17.52;;;12.27;;
74995;SDS011;63545;51.690;5.202;2023-07-28T10:36:57;15.47;;;11.83;;
74995;SDS011;63545;51.690;5.202;2023-07-28T10:39:26;18.02;;;12.65;;
74995;SDS011;63545;51.690;5.202;2023-07-28T10:42:01;18.43;;;13.67;;
74995;SDS011;63545;51.690;5.202;2023-07-28T10:44:29;20.50;;;14.80;;
74995;SDS011;63545;51.690;5.202;2023-07-28T10:46:54;19.40;;;14.88;;
74995;SDS011;63545;51.690;5.202;2023-07-28T10:49:20;21.40;;;14.57;;
74995;SDS011;63545;51.690;5.202;2023-07-28T10:51:46;19.67;;;15.13;;
74995;SDS011;63545;51.690;5.202;2023-07-28T10:54:11;20.40;;;15.30;;
74995;SDS011;63545;51.690;5.202;2023-07-28T10:56:41;19.52;;;14.80;;
74995;SDS011;63545;51.690;5.202;2023-07-28T10:59:07;18.37;;;14.40;;
74995;SDS011;63545;51.690;5.202;2023-07-28T11:01:36;18.23;;;14.87;;
74995;SDS011;63545;51.690;5.202;2023-07-28T11:04:18;24.77;;;15.33;;
74995;SDS011;63545;51.690;5.202;2023-07-28T11:06:45;20.85;;;15.57;;
74995;SDS011;63545;51.690;5.202;2023-07-28T11:09:13;18.17;;;14.05;;
74995;SDS011;63545;51.690;5.202;2023-07-28T11:11:39;18.77;;;13.35;;
74995;SDS011;63545;51.690;5.202;2023-07-28T11:14:06;17.85;;;12.73;;
74995;SDS011;63545;51.690;5.202;2023-07-28T11:16:35;19.60;;;16.20;;
74995;SDS011;63545;51.690;5.202;2023-07-28T11:19:01;18.35;;;13.80;;
74995;SDS011;63545;51.690;5.202;2023-07-28T11:21:28;15.70;;;12.75;;
74995;SDS011;63545;51.690;5.202;2023-07-28T11:23:53;19.67;;;11.48;;
74995;SDS011;63545;51.690;5.202;2023-07-28T11:26:19;16.40;;;12.73;;
74995;SDS011;63545;51.690;5.202;2023-07-28T11:28:47;17.00;;;12.55;;
74995;SDS011;63545;51.690;5.202;2023-07-28T11:31:12;13.20;;;11.00;;
74995;SDS011;63545;51.690;5.202;2023-07-28T11:33:38;16.73;;;11.10;;
74995;SDS011;63545;51.690;5.202;2023-07-28T11:36:04;15.75;;;10.90;;
74995;SDS011;63545;51.690;5.202;2023-07-28T11:38:29;12.65;;;10.75;;
74995;SDS011;63545;51.690;5.202;2023-07-28T11:40:56;12.40;;;10.40;;
74995;SDS011;63545;51.690;5.202;2023-07-28T11:43:22;30.60;;;13.18;;
74995;SDS011;63545;51.690;5.202;2023-07-28T11:45:48;18.65;;;11.60;;
74995;SDS011;63545;51.690;5.202;2023-07-28T11:48:13;13.77;;;11.47;;
74995;SDS011;63545;51.690;5.202;2023-07-28T11:50:41;14.88;;;12.02;;
74995;SDS011;63545;51.690;5.202;2023-07-28T11:53:07;15.30;;;12.30;;
74995;SDS011;63545;51.690;5.202;2023-07-28T11:55:34;15.45;;;12.57;;
74995;SDS011;63545;51.690;5.202;2023-07-28T11:58:01;15.97;;;12.33;;
74995;SDS011;63545;51.690;5.202;2023-07-28T12:00:33;18.30;;;12.90;;
74995;SDS011;63545;51.690;5.202;2023-07-28T12:03:00;16.80;;;12.85;;
74995;SDS011;63545;51.690;5.202;2023-07-28T12:05:36;16.13;;;13.40;;
74995;SDS011;63545;51.690;5.202;2023-07-28T12:08:03;16.10;;;12.55;;
74995;SDS011;63545;51.690;5.202;2023-07-28T12:10:28;14.90;;;11.27;;
74995;SDS011;63545;51.690;5.202;2023-07-28T12:12:54;15.35;;;11.80;;
74995;SDS011;63545;51.690;5.202;2023-07-28T12:15:26;13.43;;;11.17;;
74995;SDS011;63545;51.690;5.202;2023-07-28T12:18:27;15.00;;;11.85;;
74995;SDS011;63545;51.690;5.202;2023-07-28T12:23:15;10.87;;;9.23;;
74995;SDS011;63545;51.690;5.202;2023-07-28T12:25:42;11.00;;;9.35;;
74995;SDS011;63545;51.690;5.202;2023-07-28T12:28:07;13.05;;;9.77;;
74995;SDS011;63545;51.690;5.202;2023-07-28T12:30:33;11.60;;;9.00;;
74995;SDS011;63545;51.690;5.202;2023-07-28T12:32:59;9.23;;;8.23;;
74995;SDS011;63545;51.690;5.202;2023-07-28T12:35:25;10.15;;;8.05;;
74995;SDS011;63545;51.690;5.202;2023-07-28T12:37:55;11.30;;;9.13;;
74995;SDS011;63545;51.690;5.202;2023-07-28T12:40:21;11.43;;;7.53;;
74995;SDS011;63545;51.690;5.202;2023-07-28T12:42:47;11.13;;;7.85;;
74995;SDS011;63545;51.690;5.202;2023-07-28T12:45:13;8.57;;;7.30;;
74995;SDS011;63545;51.690;5.202;2023-07-28T12:47:39;9.63;;;7.68;;
74995;SDS011;63545;51.690;5.202;2023-07-28T12:50:04;8.63;;;6.97;;
74995;SDS011;63545;51.690;5.202;2023-07-28T12:52:31;8.27;;;6.97;;
74995;SDS011;63545;51.690;5.202;2023-07-28T12:54:57;8.30;;;6.72;;
74995;SDS011;63545;51.690;5.202;2023-07-28T12:57:23;10.30;;;6.70;;
74995;SDS011;63545;51.690;5.202;2023-07-28T12:59:49;9.18;;;7.38;;
74995;SDS011;63545;51.690;5.202;2023-07-28T13:02:14;9.63;;;8.00;;
74995;SDS011;63545;51.690;5.202;2023-07-28T13:04:40;15.20;;;9.90;;
74995;SDS011;63545;51.690;5.202;2023-07-28T13:07:05;13.17;;;10.03;;
74995;SDS011;63545;51.690;5.202;2023-07-28T13:09:31;13.73;;;10.43;;
74995;SDS011;63545;51.690;5.202;2023-07-28T13:11:57;16.75;;;11.57;;
74995;SDS011;63545;51.690;5.202;2023-07-28T13:14:22;15.23;;;11.80;;
74995;SDS011;63545;51.690;5.202;2023-07-28T13:16:47;16.07;;;11.37;;
74995;SDS011;63545;51.690;5.202;2023-07-28T13:19:13;14.47;;;11.03;;
74995;SDS011;63545;51.690;5.202;2023-07-28T13:21:38;13.00;;;9.97;;
74995;SDS011;63545;51.690;5.202;2023-07-28T13:24:03;13.87;;;8.87;;
74995;SDS011;63545;51.690;5.202;2023-07-28T13:26:29;14.77;;;8.67;;
74995;SDS011;63545;51.690;5.202;2023-07-28T13:28:54;13.73;;;8.33;;
74995;SDS011;63545;51.690;5.202;2023-07-28T13:31:22;13.27;;;8.10;;
74995;SDS011;63545;51.690;5.202;2023-07-28T13:33:47;9.50;;;7.77;;
74995;SDS011;63545;51.690;5.202;2023-07-28T13:36:12;10.07;;;7.13;;
74995;SDS011;63545;51.690;5.202;2023-07-28T13:38:39;10.27;;;7.45;;
74995;SDS011;63545;51.690;5.202;2023-07-28T13:41:06;10.15;;;7.28;;
74995;SDS011;63545;51.690;5.202;2023-07-28T13:43:34;10.33;;;7.50;;
74995;SDS011;63545;51.690;5.202;2023-07-28T13:46:01;11.65;;;7.45;;
74995;SDS011;63545;51.690;5.202;2023-07-28T13:48:27;8.98;;;7.30;;
74995;SDS011;63545;51.690;5.202;2023-07-28T13:50:53;10.30;;;7.40;;
74995;SDS011;63545;51.690;5.202;2023-07-28T13:53:18;10.52;;;7.72;;
74995;SDS011;63545;51.690;5.202;2023-07-28T13:55:43;8.13;;;6.83;;
74995;SDS011;63545;51.690;5.202;2023-07-28T13:58:09;8.37;;;5.67;;
74995;SDS011;63545;51.690;5.202;2023-07-28T14:00:35;7.05;;;5.72;;
74995;SDS011;63545;51.690;5.202;2023-07-28T14:03:00;8.87;;;4.93;;
74995;SDS011;63545;51.690;5.202;2023-07-28T14:05:26;5.80;;;4.80;;
74995;SDS011;63545;51.690;5.202;2023-07-28T14:07:52;6.40;;;5.32;;
74995;SDS011;63545;51.690;5.202;2023-07-28T14:10:18;9.17;;;5.67;;
74995;SDS011;63545;51.690;5.202;2023-07-28T14:12:43;10.97;;;7.80;;
74995;SDS011;63545;51.690;5.202;2023-07-28T14:15:09;11.70;;;7.93;;
74995;SDS011;63545;51.690;5.202;2023-07-28T14:17:34;10.67;;;8.67;;
74995;SDS011;63545;51.690;5.202;2023-07-28T14:19:59;10.73;;;8.70;;
74995;SDS011;63545;51.690;5.202;2023-07-28T14:22:25;16.87;;;11.00;;
74995;SDS011;63545;51.690;5.202;2023-07-28T14:24:50;16.67;;;10.37;;
74995;SDS011;63545;51.690;5.202;2023-07-28T14:27:16;12.20;;;9.30;;
74995;SDS011;63545;51.690;5.202;2023-07-28T14:29:41;9.93;;;7.40;;